createdAt,value
2023-03-27T00:00:10.802Z,97878.06
2023-03-27T00:02:46.991Z,97882.66
2023-03-27T00:05:20.763Z,97890.97
2023-03-27T00:07:55.741Z,97894.03
2023-03-27T00:10:30.060Z,97910.84
2023-03-27T00:13:03.726Z,97914.47
2023-03-27T00:15:37.622Z,97924.59
2023-03-27T00:18:10.831Z,97923.94
2023-03-27T00:20:44.750Z,97939.44
2023-03-27T00:23:19.988Z,97924.50
2023-03-27T00:25:56.031Z,97932.16
2023-03-27T00:28:30.565Z,97941.59
2023-03-27T00:31:03.662Z,97942.00
2023-03-27T00:33:36.675Z,97951.13
2023-03-27T00:36:10.797Z,97962.38
2023-03-27T00:38:45.846Z,97962.59
2023-03-27T00:41:20.699Z,97973.81
2023-03-27T00:43:56.455Z,97973.13
2023-03-27T00:46:36.343Z,97983.63
2023-03-27T00:49:12.935Z,97995.81
2023-03-27T00:51:48.636Z,98005.50
2023-03-27T00:54:26.675Z,98003.06
2023-03-27T00:57:09.411Z,98003.63
2023-03-27T00:59:45.356Z,98016.34
2023-03-27T01:02:19.607Z,98016.78
2023-03-27T01:04:54.505Z,98020.28
2023-03-27T01:07:28.635Z,98022.91
2023-03-27T01:10:02.089Z,98025.63
2023-03-27T01:12:45.608Z,98042.59
2023-03-27T01:15:33.562Z,98046.06
2023-03-27T01:18:20.893Z,98059.34
2023-03-27T01:21:48.010Z,98061.94
2023-03-27T01:24:57.332Z,98062.13
2023-03-27T01:27:53.899Z,98074.94
2023-03-27T01:30:33.000Z,98078.19
2023-03-27T01:33:32.740Z,98091.56
2023-03-27T01:36:34.772Z,98090.47
2023-03-27T01:39:30.430Z,98104.66
2023-03-27T01:42:14.544Z,98109.72
2023-03-27T01:44:53.170Z,98116.16
2023-03-27T01:47:35.106Z,98120.56
2023-03-27T01:50:18.012Z,98126.28
2023-03-27T01:52:55.469Z,98136.66
2023-03-27T01:55:34.590Z,98140.34
2023-03-27T01:58:14.206Z,98153.88
2023-03-27T02:00:53.341Z,98159.78
2023-03-27T02:03:32.000Z,98158.88
2023-03-27T02:06:09.583Z,98167.94
2023-03-27T02:08:48.664Z,98172.56
2023-03-27T02:11:32.167Z,98175.91
2023-03-27T02:14:10.462Z,98171.94
2023-03-27T02:16:47.130Z,98180.97
2023-03-27T02:19:25.247Z,98186.84
2023-03-27T02:21:59.047Z,98187.75
2023-03-27T02:24:32.150Z,98191.69
2023-03-27T02:27:15.683Z,98197.91
2023-03-27T02:29:59.785Z,98204.66
2023-03-27T02:32:41.644Z,98213.13
2023-03-27T02:35:31.891Z,98218.41
2023-03-27T02:38:12.673Z,98228.56
2023-03-27T02:40:58.757Z,98227.75
2023-03-27T02:44:00.197Z,98230.91
2023-03-27T02:46:54.729Z,98245.22
2023-03-27T02:49:33.681Z,98255.78
2023-03-27T02:52:11.246Z,98261.66
2023-03-27T02:54:49.915Z,98265.28
2023-03-27T02:57:28.004Z,98271.28
2023-03-27T03:00:42.105Z,98280.72
2023-03-27T03:03:33.568Z,98282.38
2023-03-27T03:06:14.783Z,98289.09
2023-03-27T03:08:49.914Z,98301.72
2023-03-27T03:11:22.937Z,98313.63
2023-03-27T03:13:56.330Z,98309.34
2023-03-27T03:16:31.137Z,98321.94
2023-03-27T03:19:04.050Z,98333.78
2023-03-27T03:21:37.836Z,98357.19
2023-03-27T03:24:13.585Z,98350.88
2023-03-27T03:26:49.962Z,98362.38
2023-03-27T03:29:35.499Z,98373.09
2023-03-27T03:32:24.644Z,98378.28
2023-03-27T03:34:58.799Z,98395.66
2023-03-27T03:37:38.747Z,98399.94
2023-03-27T03:40:14.274Z,98408.69
2023-03-27T03:42:53.320Z,98416.53
2023-03-27T03:45:30.669Z,98415.03
2023-03-27T03:48:05.323Z,98411.59
2023-03-27T03:50:38.234Z,98425.72
2023-03-27T03:53:11.593Z,98430.06
2023-03-27T03:55:45.610Z,98439.16
2023-03-27T03:58:18.820Z,98454.56
2023-03-27T04:00:52.561Z,98459.69
2023-03-27T04:03:39.283Z,98469.22
2023-03-27T04:06:13.462Z,98476.69
2023-03-27T04:08:46.961Z,98485.38
2023-03-27T04:11:42.697Z,98497.22
2023-03-27T04:14:34.627Z,98498.38
2023-03-27T04:17:13.089Z,98508.66
2023-03-27T04:19:47.891Z,98507.09
2023-03-27T04:22:22.740Z,98512.97
2023-03-27T04:24:55.941Z,98529.16
2023-03-27T04:27:30.411Z,98523.63
2023-03-27T04:30:14.537Z,98536.25
2023-03-27T04:33:25.848Z,98548.50
2023-03-27T04:36:07.952Z,98557.56
2023-03-27T04:39:03.655Z,98565.44
2023-03-27T04:41:38.973Z,98572.13
2023-03-27T04:44:13.280Z,98578.84
2023-03-27T04:46:49.137Z,98589.09
2023-03-27T04:49:22.901Z,98598.56
2023-03-27T04:52:03.590Z,98606.81
2023-03-27T04:54:36.860Z,98610.75
2023-03-27T04:57:10.069Z,98624.97
2023-03-27T04:59:43.413Z,98636.78
2023-03-27T05:02:36.712Z,98645.84
2023-03-27T05:05:19.419Z,98652.91
2023-03-27T05:07:53.885Z,98656.84
2023-03-27T05:10:30.013Z,98656.88
2023-03-27T05:13:02.994Z,98665.91
2023-03-27T05:15:35.854Z,98669.44
2023-03-27T05:18:10.858Z,98685.53
2023-03-27T05:20:48.947Z,98689.44
2023-03-27T05:23:23.851Z,98694.88
2023-03-27T05:26:00.363Z,98691.75
2023-03-27T05:28:45.834Z,98710.22
2023-03-27T05:31:19.298Z,98707.44
2023-03-27T05:34:22.093Z,98728.28
2023-03-27T05:36:58.263Z,98734.19
2023-03-27T05:39:36.852Z,98734.22
2023-03-27T05:42:15.082Z,98763.41
2023-03-27T05:44:48.812Z,98757.13
2023-03-27T05:47:21.831Z,98764.66
2023-03-27T05:49:58.893Z,98774.56
2023-03-27T05:52:33.753Z,98779.25
2023-03-27T05:55:10.475Z,98786.34
2023-03-27T05:57:44.864Z,98791.53
2023-03-27T06:00:23.877Z,98799.81
2023-03-27T06:02:58.614Z,98803.38
2023-03-27T06:05:44.732Z,98807.34
2023-03-27T06:08:18.105Z,98809.34
2023-03-27T06:10:54.410Z,98813.63
2023-03-27T06:13:31.448Z,98815.59
2023-03-27T06:16:12.151Z,98826.59
2023-03-27T06:19:10.086Z,98836.16
2023-03-27T06:21:50.649Z,98847.56
2023-03-27T06:24:23.782Z,98851.91
2023-03-27T06:26:58.474Z,98854.31
2023-03-27T06:29:37.409Z,98859.78
2023-03-27T06:32:11.893Z,98872.81
2023-03-27T06:34:50.273Z,98876.38
2023-03-27T06:37:42.531Z,98882.31
2023-03-27T06:40:22.858Z,98893.41
2023-03-27T06:43:01.170Z,98898.56
2023-03-27T06:45:45.742Z,98903.69
2023-03-27T06:48:57.117Z,98910.84
2023-03-27T06:51:30.030Z,98915.13
2023-03-27T06:54:03.261Z,98934.06
2023-03-27T06:56:37.428Z,98950.97
2023-03-27T06:59:23.337Z,98949.41
2023-03-27T07:02:02.330Z,98954.50
2023-03-27T07:05:04.828Z,98958.47
2023-03-27T07:07:49.400Z,98966.50
2023-03-27T07:10:24.803Z,98966.59
2023-03-27T07:13:00.150Z,98978.88
2023-03-27T07:15:35.677Z,98977.75
2023-03-27T07:18:09.888Z,98988.81
2023-03-27T07:20:42.784Z,98996.34
2023-03-27T07:23:19.725Z,99000.69
2023-03-27T07:26:00.299Z,99012.19
2023-03-27T07:29:00.698Z,99018.13
2023-03-27T07:31:54.933Z,99013.84
2023-03-27T07:34:35.347Z,99032.84
2023-03-27T07:37:29.544Z,99026.53
2023-03-27T07:40:36.870Z,99040.38
2023-03-27T07:43:32.921Z,99048.69
2023-03-27T07:46:07.348Z,99051.47
2023-03-27T07:48:42.068Z,99048.69
2023-03-27T07:51:22.854Z,99047.13
2023-03-27T07:53:58.765Z,99058.56
2023-03-27T07:56:37.989Z,99065.31
2023-03-27T07:59:29.747Z,99060.16
2023-03-27T08:02:07.134Z,99065.69
2023-03-27T08:04:45.581Z,99070.44
2023-03-27T08:07:21.539Z,99079.13
2023-03-27T08:09:57.542Z,99086.22
2023-03-27T08:12:32.459Z,99084.25
2023-03-27T08:15:09.441Z,99076.28
2023-03-27T08:17:42.635Z,99095.56
2023-03-27T08:20:18.831Z,99098.56
2023-03-27T08:22:54.307Z,99091.03
2023-03-27T08:25:36.378Z,99098.13
2023-03-27T08:28:13.536Z,99108.53
2023-03-27T08:30:47.624Z,99110.69
2023-03-27T08:33:20.491Z,99116.25
2023-03-27T08:35:57.431Z,99125.44
2023-03-27T08:38:33.326Z,99125.31
2023-03-27T08:41:39.040Z,99131.59
2023-03-27T08:44:47.792Z,99135.66
2023-03-27T08:47:29.266Z,99146.16
2023-03-27T08:50:22.345Z,99154.22
2023-03-27T08:53:01.030Z,99149.81
2023-03-27T08:55:42.290Z,99157.13
2023-03-27T08:58:24.362Z,99165.13
2023-03-27T09:01:11.723Z,99173.06
2023-03-27T09:03:52.130Z,99172.22
2023-03-27T09:06:28.082Z,99182.69
2023-03-27T09:09:12.070Z,99175.88
2023-03-27T09:11:50.880Z,99183.00
2023-03-27T09:14:31.950Z,99173.16
2023-03-27T09:17:13.345Z,99189.59
2023-03-27T09:19:51.750Z,99192.84
2023-03-27T09:22:31.257Z,99199.97
2023-03-27T09:25:26.150Z,99195.44
2023-03-27T09:28:25.630Z,99195.25
2023-03-27T09:31:23.590Z,99203.25
2023-03-27T09:33:59.494Z,99208.91
2023-03-27T09:36:32.841Z,99212.13
2023-03-27T09:39:08.305Z,99222.38
2023-03-27T09:41:47.712Z,99208.38
2023-03-27T09:44:25.532Z,99217.59
2023-03-27T09:47:05.921Z,99218.84
2023-03-27T09:49:41.308Z,99215.72
2023-03-27T09:52:35.635Z,99212.31
2023-03-27T09:55:31.158Z,99220.88
2023-03-27T09:58:17.062Z,99222.66
2023-03-27T10:00:50.151Z,99231.47
2023-03-27T10:03:23.479Z,99221.25
2023-03-27T10:06:08.415Z,99217.31
2023-03-27T10:08:56.824Z,99223.94
2023-03-27T10:11:35.601Z,99222.31
2023-03-27T10:14:19.869Z,99214.59
2023-03-27T10:16:53.060Z,99209.97
2023-03-27T10:19:30.158Z,99214.09
2023-03-27T10:22:18.004Z,99217.53
2023-03-27T10:24:53.951Z,99226.63
2023-03-27T10:27:29.979Z,99224.53
2023-03-27T10:30:33.057Z,99232.28
2023-03-27T10:33:31.644Z,99234.97
2023-03-27T10:36:33.441Z,99242.44
2023-03-27T10:39:12.897Z,99243.88
2023-03-27T10:42:17.264Z,99253.69
2023-03-27T10:44:57.699Z,99274.66
2023-03-27T10:47:35.967Z,99262.44
2023-03-27T10:50:19.177Z,99259.19
2023-03-27T10:53:02.752Z,99256.47
2023-03-27T10:55:53.885Z,99250.56
2023-03-27T10:58:34.227Z,99254.66
2023-03-27T11:01:13.066Z,99249.81
2023-03-27T11:03:57.101Z,99253.69
2023-03-27T11:06:35.252Z,99261.16
2023-03-27T11:09:17.294Z,99261.97
2023-03-27T11:12:05.924Z,99257.91
2023-03-27T11:14:48.426Z,99262.06
2023-03-27T11:17:30.673Z,99259.97
2023-03-27T11:20:26.179Z,99257.44
2023-03-27T11:23:28.649Z,99259.41
2023-03-27T11:26:23.574Z,99256.09
2023-03-27T11:29:05.925Z,99253.22
2023-03-27T11:31:51.195Z,99264.34
2023-03-27T11:35:04.590Z,99259.34
2023-03-27T11:37:54.659Z,99248.16
2023-03-27T11:40:37.508Z,99246.94
2023-03-27T11:43:13.170Z,99258.16
2023-03-27T11:46:00.373Z,99264.03
2023-03-27T11:48:49.422Z,99279.84
2023-03-27T11:51:31.773Z,99304.88
2023-03-27T11:54:28.247Z,99328.44
2023-03-27T11:57:17.359Z,99313.88
2023-03-27T12:00:25.636Z,99288.53
2023-03-27T12:03:14.749Z,99294.50
2023-03-27T12:06:03.230Z,99285.34
2023-03-27T12:08:54.829Z,99281.34
2023-03-27T12:11:30.868Z,99281.25
2023-03-27T12:14:34.369Z,99284.75
2023-03-27T12:17:35.697Z,99281.94
2023-03-27T12:20:48.700Z,99303.56
2023-03-27T12:23:40.065Z,99303.22
2023-03-27T12:26:48.642Z,99318.53
2023-03-27T12:29:50.828Z,99310.69
2023-03-27T12:32:44.795Z,99325.72
2023-03-27T12:35:21.581Z,99339.66
2023-03-27T12:38:00.152Z,99351.25
2023-03-27T12:40:39.943Z,99348.81
2023-03-27T12:43:31.616Z,99351.66
2023-03-27T12:46:33.153Z,99336.91
2023-03-27T12:49:47.013Z,99347.72
2023-03-27T12:52:28.576Z,99352.59
2023-03-27T12:55:24.225Z,99354.69
2023-03-27T12:58:05.295Z,99342.41
2023-03-27T13:01:12.563Z,99328.31
2023-03-27T13:04:19.770Z,99337.25
2023-03-27T13:07:02.972Z,99318.69
2023-03-27T13:10:10.340Z,99324.22
2023-03-27T13:12:58.488Z,99330.19
2023-03-27T13:16:02.698Z,99336.06
2023-03-27T13:19:10.076Z,99331.16
2023-03-27T13:22:15.094Z,99329.22
2023-03-27T13:25:23.104Z,99319.97
2023-03-27T13:28:31.642Z,99329.72
2023-03-27T13:32:03.180Z,99328.66
2023-03-27T13:35:08.682Z,99320.84
2023-03-27T13:37:58.267Z,99323.09
2023-03-27T13:40:41.251Z,99316.94
2023-03-27T13:43:25.315Z,99323.66
2023-03-27T13:46:08.026Z,99326.41
2023-03-27T13:49:11.327Z,99316.00
2023-03-27T13:52:29.755Z,99315.16
2023-03-27T13:55:43.713Z,99315.03
2023-03-27T13:59:14.467Z,99313.31
2023-03-27T14:01:59.221Z,99316.59
2023-03-27T14:04:53.253Z,99312.00
2023-03-27T14:08:09.767Z,99324.81
2023-03-27T14:11:31.348Z,99317.13
2023-03-27T14:14:24.257Z,99317.06
2023-03-27T14:17:43.938Z,99317.44
2023-03-27T14:20:23.102Z,99325.88
2023-03-27T14:23:01.948Z,99316.97
2023-03-27T14:25:47.904Z,99319.47
2023-03-27T14:28:33.630Z,99319.41
2023-03-27T14:31:11.296Z,99313.50
2023-03-27T14:34:05.428Z,99317.78
2023-03-27T14:36:42.957Z,99323.09
2023-03-27T14:39:26.235Z,99324.22
2023-03-27T14:42:16.456Z,99317.59
2023-03-27T14:45:08.837Z,99306.84
2023-03-27T14:47:42.971Z,99310.25
2023-03-27T14:50:20.526Z,99326.72
2023-03-27T14:52:56.445Z,99328.75
2023-03-27T14:55:52.925Z,99320.38
2023-03-27T14:58:54.669Z,99342.28
2023-03-27T15:01:32.001Z,99334.38
2023-03-27T15:04:11.265Z,99327.56
2023-03-27T15:06:46.028Z,99334.78
2023-03-27T15:09:30.380Z,99329.69
2023-03-27T15:12:24.586Z,99325.44
2023-03-27T15:14:59.511Z,99336.22
2023-03-27T15:17:38.785Z,99334.47
2023-03-27T15:20:14.796Z,99328.78
2023-03-27T15:22:52.152Z,99326.91
2023-03-27T15:25:35.998Z,99327.59
2023-03-27T15:28:15.893Z,99338.75
2023-03-27T15:30:52.818Z,99339.25
2023-03-27T15:33:34.158Z,99352.22
2023-03-27T15:36:21.472Z,99344.78
2023-03-27T15:38:55.235Z,99356.09
2023-03-27T15:41:38.816Z,99352.94
2023-03-27T15:44:19.084Z,99347.16
2023-03-27T15:46:55.410Z,99362.16
2023-03-27T15:49:32.983Z,99374.75
2023-03-27T15:52:31.192Z,99372.75
2023-03-27T15:55:04.570Z,99387.75
2023-03-27T15:57:37.908Z,99388.53
2023-03-27T16:00:15.320Z,99385.41
2023-03-27T16:02:49.038Z,99378.00
2023-03-27T16:05:23.315Z,99378.81
2023-03-27T16:07:56.493Z,99382.78
2023-03-27T16:10:32.961Z,99387.06
2023-03-27T16:13:07.469Z,99380.69
2023-03-27T16:15:42.032Z,99381.53
2023-03-27T16:18:19.239Z,99379.75
2023-03-27T16:20:53.467Z,99382.91
2023-03-27T16:23:26.306Z,99382.59
2023-03-27T16:26:00.624Z,99379.00
2023-03-27T16:28:33.846Z,99377.72
2023-03-27T16:31:14.313Z,99378.91
2023-03-27T16:33:47.107Z,99378.16
2023-03-27T16:36:25.786Z,99393.41
2023-03-27T16:38:58.560Z,99386.25
2023-03-27T16:41:31.483Z,99388.19
2023-03-27T16:44:04.356Z,99396.94
2023-03-27T16:46:37.254Z,99397.34
2023-03-27T16:49:12.699Z,99401.25
2023-03-27T16:51:46.989Z,99391.63
2023-03-27T16:54:19.817Z,99405.19
2023-03-27T16:56:53.488Z,99401.16
2023-03-27T16:59:26.559Z,99411.53
2023-03-27T17:01:59.570Z,99415.06
2023-03-27T17:04:32.712Z,99409.44
2023-03-27T17:07:07.781Z,99422.69
2023-03-27T17:09:41.029Z,99428.97
2023-03-27T17:12:14.083Z,99427.03
2023-03-27T17:14:46.953Z,99430.31
2023-03-27T17:17:19.979Z,99441.91
2023-03-27T17:19:52.735Z,99436.38
2023-03-27T17:22:29.841Z,99446.28
2023-03-27T17:25:05.584Z,99453.84
2023-03-27T17:27:38.961Z,99454.25
2023-03-27T17:30:12.558Z,99463.78
2023-03-27T17:32:46.126Z,99461.00
2023-03-27T17:35:19.121Z,99469.31
2023-03-27T17:37:53.424Z,99485.19
2023-03-27T17:40:26.667Z,99485.97
2023-03-27T17:43:02.012Z,99494.69
2023-03-27T17:45:35.111Z,99494.63
2023-03-27T17:48:08.339Z,99510.91
2023-03-27T17:50:41.530Z,99512.03
2023-03-27T17:53:16.113Z,99520.38
2023-03-27T17:55:51.578Z,99516.81
2023-03-27T17:58:26.513Z,99527.44
2023-03-27T18:00:59.432Z,99545.75
2023-03-27T18:03:32.286Z,99545.75
2023-03-27T18:06:05.575Z,99547.22
2023-03-27T18:08:39.902Z,99542.03
2023-03-27T18:11:15.014Z,99538.59
2023-03-27T18:13:52.663Z,99549.56
2023-03-27T18:16:25.639Z,99553.25
2023-03-27T18:18:58.700Z,99557.16
2023-03-27T18:21:31.479Z,99556.63
2023-03-27T18:24:06.563Z,99569.06
2023-03-27T18:26:39.562Z,99572.06
2023-03-27T18:29:13.029Z,99569.69
2023-03-27T18:31:45.935Z,99570.03
2023-03-27T18:34:19.243Z,99580.81
2023-03-27T18:36:52.739Z,99589.53
2023-03-27T18:39:27.444Z,99585.25
2023-03-27T18:42:02.214Z,99590.78
2023-03-27T18:44:36.528Z,99593.66
2023-03-27T18:47:09.646Z,99595.47
2023-03-27T18:49:44.577Z,99596.56
2023-03-27T18:52:17.612Z,99607.97
2023-03-27T18:54:51.852Z,99621.59
2023-03-27T18:57:25.115Z,99652.31
2023-03-27T18:59:58.471Z,99666.41
2023-03-27T19:02:32.194Z,99663.19
2023-03-27T19:05:05.856Z,99665.03
2023-03-27T19:07:44.614Z,99671.81
2023-03-27T19:10:19.683Z,99669.13
2023-03-27T19:13:10.993Z,99675.75
2023-03-27T19:16:02.290Z,99663.34
2023-03-27T19:19:06.176Z,99668.25
2023-03-27T19:22:12.690Z,99667.03
2023-03-27T19:25:16.277Z,99664.16
2023-03-27T19:27:50.953Z,99662.94
2023-03-27T19:30:24.296Z,99659.25
2023-03-27T19:33:00.621Z,99660.22
2023-03-27T19:35:34.085Z,99674.28
2023-03-27T19:38:07.021Z,99671.44
2023-03-27T19:40:39.946Z,99671.09
2023-03-27T19:43:14.238Z,99678.19
2023-03-27T19:46:04.429Z,99680.50
2023-03-27T19:48:47.555Z,99686.50
2023-03-27T19:51:43.939Z,99684.22
2023-03-27T19:54:19.086Z,99679.69
2023-03-27T19:56:52.241Z,99688.25
2023-03-27T19:59:30.943Z,99697.81
2023-03-27T20:02:05.152Z,99695.72
2023-03-27T20:04:38.125Z,99692.91
2023-03-27T20:07:11.278Z,99701.44
2023-03-27T20:09:44.156Z,99708.88
2023-03-27T20:12:19.619Z,99704.75
2023-03-27T20:15:02.370Z,99702.47
2023-03-27T20:17:41.317Z,99708.97
2023-03-27T20:20:14.379Z,99697.66
2023-03-27T20:22:57.179Z,99707.16
2023-03-27T20:25:33.756Z,99700.69
2023-03-27T20:28:07.741Z,99707.59
2023-03-27T20:30:42.111Z,99705.91
2023-03-27T20:33:15.016Z,99702.06
2023-03-27T20:35:47.827Z,99702.50
2023-03-27T20:38:20.879Z,99709.47
2023-03-27T20:40:54.551Z,99712.88
2023-03-27T20:43:34.915Z,99718.81
2023-03-27T20:46:11.934Z,99709.69
2023-03-27T20:48:53.545Z,99706.59
2023-03-27T20:51:28.009Z,99706.94
2023-03-27T20:54:05.912Z,99707.28
2023-03-27T20:56:39.035Z,99714.06
2023-03-27T20:59:13.497Z,99713.19
2023-03-27T21:01:47.926Z,99712.66
2023-03-27T21:04:21.522Z,99716.53
2023-03-27T21:06:55.035Z,99711.50
2023-03-27T21:09:28.723Z,99712.75
2023-03-27T21:12:01.534Z,99720.00
2023-03-27T21:14:34.478Z,99721.69
2023-03-27T21:17:08.955Z,99718.06
2023-03-27T21:19:41.934Z,99717.41
2023-03-27T21:22:14.749Z,99724.44
2023-03-27T21:24:47.691Z,99726.09
2023-03-27T21:27:20.714Z,99728.06
2023-03-27T21:29:53.557Z,99721.94
2023-03-27T21:32:28.612Z,99735.91
2023-03-27T21:35:01.631Z,99723.47
2023-03-27T21:37:34.776Z,99726.38
2023-03-27T21:40:09.251Z,99726.19
2023-03-27T21:42:42.269Z,99726.00
2023-03-27T21:45:15.464Z,99733.31
2023-03-27T21:47:51.302Z,99734.38
2023-03-27T21:50:24.634Z,99734.47
2023-03-27T21:52:57.707Z,99727.72
2023-03-27T21:55:30.686Z,99735.44
2023-03-27T21:58:03.497Z,99751.50
2023-03-27T22:00:36.264Z,99741.97
2023-03-27T22:03:10.494Z,99744.00
2023-03-27T22:05:43.986Z,99746.28
2023-03-27T22:08:19.225Z,99753.13
2023-03-27T22:10:52.250Z,99753.22
2023-03-27T22:13:25.010Z,99758.81
2023-03-27T22:15:58.465Z,99761.56
2023-03-27T22:18:33.695Z,99754.94
2023-03-27T22:21:18.069Z,99759.97
2023-03-27T22:23:52.002Z,99761.75
2023-03-27T22:26:27.214Z,99766.00
2023-03-27T22:29:00.325Z,99769.94
2023-03-27T22:31:33.241Z,99769.84
2023-03-27T22:34:07.486Z,99774.28
2023-03-27T22:36:40.489Z,99778.69
2023-03-27T22:39:13.381Z,99779.50
2023-03-27T22:41:46.262Z,99781.94
2023-03-27T22:44:19.182Z,99785.22
2023-03-27T22:46:53.148Z,99790.53
2023-03-27T22:49:27.728Z,99789.91
2023-03-27T22:52:00.719Z,99791.97
2023-03-27T22:54:33.700Z,99796.94
2023-03-27T22:57:06.552Z,99795.69
2023-03-27T22:59:39.536Z,99796.13
2023-03-27T23:02:12.375Z,99808.91
2023-03-27T23:04:46.562Z,99794.72
2023-03-27T23:07:19.558Z,99801.53
2023-03-27T23:09:52.414Z,99798.97
2023-03-27T23:12:25.435Z,99800.47
2023-03-27T23:14:58.206Z,99806.44
2023-03-27T23:17:31.043Z,99806.16
2023-03-27T23:20:05.841Z,99807.50
2023-03-27T23:22:38.963Z,99808.81
2023-03-27T23:25:11.980Z,99807.72
2023-03-27T23:27:45.276Z,99801.78
2023-03-27T23:30:18.299Z,99811.22
2023-03-27T23:32:51.212Z,99812.63
2023-03-27T23:35:25.417Z,99815.28
2023-03-27T23:37:58.228Z,99828.72
2023-03-27T23:43:04.023Z,99832.56
2023-03-27T23:45:37.045Z,99844.63
2023-03-27T23:48:09.839Z,99841.03
2023-03-27T23:50:44.685Z,99842.88
2023-03-27T23:53:17.489Z,99841.63
2023-03-27T23:55:50.644Z,99853.38
2023-03-27T23:58:23.896Z,99857.59
